Time;durP1;ratioP1;P1;durP2;ratioP2;P2;SDS_P1;SDS_P2;PMS_P1;PMS_P2;Temp;Humidity;BMP_temperature;BMP_pressure;BME280_temperature;BME280_humidity;BME280_pressure;Samples;Min_cycle;Max_cycle;Signal;HPM_P1;HPM_P2
2022/08/31 00:04:52;;;;;;;11.85;6.33;;;;;;;13.69;81.29;99286.14;2142924;83;20944;-83
2022/08/31 00:07:51;;;;;;;202.22;23.22;;;;;;;13.67;81.62;99286.56;2142790;83;21406;-83
2022/08/31 00:10:53;;;;;;;16.37;5.70;;;;;;;13.70;84.14;99284.84;2142454;83;20971;-82
2022/08/31 00:13:52;;;;;;;7.55;4.08;;;;;;;13.82;83.02;99285.34;2142568;83;20975;-82
2022/08/31 00:16:53;;;;;;;8.30;4.30;;;;;;;13.88;83.05;99288.47;2142167;83;21018;-82
2022/08/31 00:19:53;;;;;;;11.12;4.40;;;;;;;13.89;83.14;99291.54;2142738;83;20964;-82
2022/08/31 00:22:54;;;;;;;7.50;4.10;;;;;;;13.91;83.40;99285.43;2142408;83;20951;-82
2022/08/31 00:25:54;;;;;;;6.37;3.58;;;;;;;13.97;83.94;99286.77;2142894;83;20940;-82
2022/08/31 00:28:54;;;;;;;7.65;4.25;;;;;;;13.91;83.99;99282.80;2142999;83;20931;-82
2022/08/31 00:31:55;;;;;;;6.25;3.08;;;;;;;13.84;84.35;99278.36;2142982;83;20964;-83
2022/08/31 00:34:55;;;;;;;6.25;3.55;;;;;;;13.85;84.88;99282.73;2142860;83;20948;-82
2022/08/31 00:37:56;;;;;;;5.42;3.62;;;;;;;13.86;85.25;99289.74;2143254;83;20939;-82
2022/08/31 00:40:56;;;;;;;16.17;3.98;;;;;;;13.91;85.51;99284.12;2144033;83;20983;-82
2022/08/31 00:43:56;;;;;;;8.10;3.40;;;;;;;13.92;85.76;99278.00;2143337;83;20932;-83
2022/08/31 00:46:57;;;;;;;8.03;3.17;;;;;;;13.93;86.20;99283.69;2143353;83;20927;-83
2022/08/31 00:49:57;;;;;;;7.55;3.12;;;;;;;13.91;86.28;99277.99;2143208;83;21011;-82
2022/08/31 00:52:57;;;;;;;4.97;3.10;;;;;;;13.91;86.41;99281.49;2143044;83;21007;-83
2022/08/31 00:55:58;;;;;;;123.67;8.70;;;;;;;13.99;86.50;99280.22;2143362;83;20975;-83
2022/08/31 00:58:59;;;;;;;5.92;2.45;;;;;;;14.00;86.91;99279.35;2145740;81;21907;-83
2022/08/31 01:01:59;;;;;;;3.87;2.55;;;;;;;13.97;86.64;99276.71;2173457;81;20988;-83
2022/08/31 01:04:59;;;;;;;5.12;2.47;;;;;;;13.94;86.75;99279.32;2173610;81;20925;-82
2022/08/31 01:08:00;;;;;;;5.83;3.35;;;;;;;13.89;87.04;99277.98;2173611;81;21012;-83
2022/08/31 01:11:00;;;;;;;6.87;2.58;;;;;;;13.90;87.14;99283.67;2173665;82;21376;-83
2022/08/31 01:14:00;;;;;;;4.62;2.98;;;;;;;13.94;87.46;99284.13;2172881;81;20953;-82
2022/08/31 01:17:01;;;;;;;3.90;2.72;;;;;;;14.01;87.55;99279.36;2173343;81;20958;-83
2022/08/31 01:20:01;;;;;;;7.17;4.37;;;;;;;14.08;87.62;99274.14;2173602;81;20929;-83
2022/08/31 01:23:02;;;;;;;80.55;10.53;;;;;;;14.13;87.85;99277.66;2173667;81;20960;-83
2022/08/31 01:26:03;;;;;;;23.98;5.30;;;;;;;14.15;88.12;99278.55;2173435;81;21004;-82
2022/08/31 01:29:02;;;;;;;11.65;5.03;;;;;;;14.15;87.96;99275.48;2173632;81;20953;-82
2022/08/31 01:32:03;;;;;;;9.80;4.37;;;;;;;14.13;87.82;99273.73;2173777;81;21024;-83
2022/08/31 01:35:03;;;;;;;7.65;3.70;;;;;;;14.11;87.79;99280.28;2173694;81;21301;-82
2022/08/31 01:38:04;;;;;;;9.58;4.10;;;;;;;14.11;87.92;99273.72;2173567;81;20925;-83
2022/08/31 01:41:05;;;;;;;18.05;4.55;;;;;;;14.10;87.99;99272.40;2173945;81;20968;-83
2022/08/31 01:44:04;;;;;;;7.83;4.03;;;;;;;14.06;87.93;99274.56;2173653;81;21285;-82
2022/08/31 01:47:05;;;;;;;5.78;3.72;;;;;;;14.01;87.96;99274.11;2173451;82;20905;-83
2022/08/31 01:50:06;;;;;;;7.42;3.90;;;;;;;13.98;88.18;99278.03;2173633;81;20902;-83
2022/08/31 01:53:06;;;;;;;11.38;3.60;;;;;;;13.95;88.26;99274.08;2173678;81;20977;-83
2022/08/31 01:56:06;;;;;;;8.20;4.17;;;;;;;13.94;88.36;99273.64;2173792;81;20941;-83
2022/08/31 01:59:06;;;;;;;6.37;3.52;;;;;;;13.93;88.58;99278.44;2174242;81;20945;-82
2022/08/31 02:02:07;;;;;;;10.65;3.60;;;;;;;13.95;88.71;99272.77;2190118;81;21011;-83
2022/08/31 02:05:07;;;;;;;6.62;3.67;;;;;;;13.95;88.66;99270.14;2190235;81;20932;-83
2022/08/31 02:08:08;;;;;;;8.18;3.83;;;;;;;13.96;88.62;99273.64;2190094;81;20933;-83
2022/08/31 02:11:08;;;;;;;6.47;3.33;;;;;;;13.92;88.57;99274.06;2190310;81;20952;-83
2022/08/31 02:14:08;;;;;;;5.47;3.47;;;;;;;13.84;88.66;99263.93;2190183;81;21340;-83
2022/08/31 02:17:09;;;;;;;6.83;3.40;;;;;;;13.84;88.84;99270.92;2190241;81;20921;-83
2022/08/31 02:20:09;;;;;;;63.38;6.60;;;;;;;13.83;89.00;99266.55;2190442;81;21336;-83
2022/08/31 02:23:10;;;;;;;5.87;2.95;;;;;;;13.83;89.25;99268.73;2190150;81;20972;-83
2022/08/31 02:26:10;;;;;;;7.90;3.25;;;;;;;13.83;89.60;99269.17;2190339;81;20921;-82
2022/08/31 02:29:10;;;;;;;4.58;2.80;;;;;;;13.82;89.51;99268.29;2190133;81;20956;-83
2022/08/31 02:32:11;;;;;;;9.58;3.50;;;;;;;13.84;89.47;99273.55;2190927;81;21056;-83
2022/08/31 02:35:11;;;;;;;6.47;3.02;;;;;;;13.84;89.68;99270.92;2190011;81;21000;-82
2022/08/31 02:38:12;;;;;;;6.20;2.75;;;;;;;13.83;89.62;99266.11;2190985;81;20976;-83
2022/08/31 02:41:12;;;;;;;7.62;3.40;;;;;;;13.87;90.00;99261.35;2190266;81;21322;-82
2022/08/31 02:44:13;;;;;;;5.78;3.30;;;;;;;13.90;89.81;99255.24;2190306;81;20984;-82
2022/08/31 02:47:13;;;;;;;5.08;2.83;;;;;;;13.83;89.69;99252.99;2190064;81;20917;-82
2022/08/31 02:50:13;;;;;;;3.75;3.10;;;;;;;13.87;89.97;99262.67;2189996;81;20972;-82
2022/08/31 02:53:14;;;;;;;6.65;3.08;;;;;;;13.91;90.21;99268.80;2189918;81;20936;-82
2022/08/31 02:56:15;;;;;;;8.83;3.70;;;;;;;13.95;90.16;99264.89;2189852;81;20901;-82
2022/08/31 02:59:15;;;;;;;7.28;3.40;;;;;;;13.94;90.22;99267.08;2190062;81;21320;-82
2022/08/31 03:02:16;;;;;;;6.33;3.12;;;;;;;13.95;90.30;99264.02;2189723;81;20972;-82
2022/08/31 03:05:15;;;;;;;9.50;3.08;;;;;;;13.95;90.18;99263.58;2190099;81;20929;-82
2022/08/31 03:08:16;;;;;;;5.90;3.00;;;;;;;13.96;90.47;99270.59;2190054;81;20932;-83
2022/08/31 03:11:17;;;;;;;9.05;3.02;;;;;;;13.95;90.31;99264.02;2190013;81;21332;-83
2022/08/31 03:14:17;;;;;;;6.72;2.85;;;;;;;13.95;90.54;99264.89;2189917;81;20980;-83
2022/08/31 03:17:18;;;;;;;9.33;3.37;;;;;;;13.96;90.70;99266.65;2190399;81;20973;-84
2022/08/31 03:20:18;;;;;;;9.85;3.50;;;;;;;13.99;91.15;99264.03;2190162;81;20897;-84
2022/08/31 03:23:18;;;;;;;12.28;3.65;;;;;;;14.03;91.41;99271.49;2190232;81;20975;-83
2022/08/31 03:26:19;;;;;;;4.10;3.00;;;;;;;14.07;91.45;99273.27;2190322;81;20952;-82
2022/08/31 03:29:19;;;;;;;6.87;3.40;;;;;;;14.12;91.48;99278.53;2190124;81;20963;-83
2022/08/31 03:32:20;;;;;;;7.17;3.85;;;;;;;14.15;91.50;99278.11;2190194;81;20979;-84
2022/08/31 03:35:20;;;;;;;9.83;3.27;;;;;;;14.17;91.44;99274.18;2190435;81;20976;-82
2022/08/31 03:38:20;;;;;;;16.65;4.10;;;;;;;14.19;91.66;99282.94;2189981;81;20992;-82
2022/08/31 03:41:21;;;;;;;3.87;2.85;;;;;;;14.18;91.74;99283.81;2189794;81;20963;-84
2022/08/31 03:44:22;;;;;;;4.62;3.22;;;;;;;14.21;92.30;99283.82;2189231;81;21316;-84
2022/08/31 03:47:22;;;;;;;152.80;9.00;;;;;;;14.21;92.04;99283.39;2189758;81;20983;-83
2022/08/31 03:50:22;;;;;;;16.23;3.75;;;;;;;14.19;92.03;99281.19;2190003;81;21273;-83
2022/08/31 03:53:22;;;;;;;13.10;3.85;;;;;;;14.19;92.59;99281.62;2190043;81;20995;-84
2022/08/31 03:56:23;;;;;;;21.05;3.83;;;;;;;14.20;92.36;99277.69;2189715;81;20963;-84
2022/08/31 03:59:23;;;;;;;13.65;4.72;;;;;;;14.24;92.78;99283.40;2189086;81;20952;-84
2022/08/31 04:02:24;;;;;;;8.73;3.62;;;;;;;14.28;93.13;99284.29;2188095;81;21438;-84
2022/08/31 04:05:24;;;;;;;11.18;3.90;;;;;;;14.30;92.98;99289.11;2188572;81;21040;-78
2022/08/31 04:08:24;;;;;;;8.83;3.98;;;;;;;14.32;93.11;99288.69;2187693;81;21040;-84
2022/08/31 04:11:26;;;;;;;7.80;3.62;;;;;;;14.34;92.93;99291.75;2188446;81;21007;-84
2022/08/31 04:14:25;;;;;;;219.45;16.75;;;;;;;14.37;92.87;99285.63;2189260;81;21018;-84
2022/08/31 04:17:26;;;;;;;19.70;5.08;;;;;;;14.40;93.15;99286.96;2188428;81;21248;-84
2022/08/31 04:20:26;;;;;;;9.53;4.25;;;;;;;14.42;92.96;99286.56;2188496;81;20956;-84
2022/08/31 04:23:28;;;;;;;45.35;8.45;;;;;;;14.46;93.41;99291.39;2189055;81;20955;-84
2022/08/31 04:26:27;;;;;;;16.40;5.45;;;;;;;14.42;94.42;99297.06;2190394;81;20952;-84
2022/08/31 04:29:27;;;;;;;18.67;5.40;;;;;;;14.38;94.88;99293.08;2189371;81;20947;-84
2022/08/31 04:32:28;;;;;;;19.27;5.53;;;;;;;14.44;95.70;99295.33;2188492;81;21497;-83
2022/08/31 04:35:28;;;;;;;7.78;4.53;;;;;;;14.58;95.61;99302.81;2188822;81;20984;-84
2022/08/31 04:38:30;;;;;;;36.58;6.35;;;;;;;14.76;95.08;99305.08;2190144;81;20897;-84
2022/08/31 04:41:29;;;;;;;7.85;4.75;;;;;;;15.09;96.09;99301.63;2189843;81;20963;-83
2022/08/31 04:44:29;;;;;;;7.78;4.37;;;;;;;15.15;93.64;99306.45;2188833;81;20976;-84
2022/08/31 04:47:30;;;;;;;15.48;5.78;;;;;;;15.01;93.32;99304.25;2188422;81;20951;-84
2022/08/31 04:50:30;;;;;;;12.63;5.00;;;;;;;14.88;93.68;99303.80;2189180;81;20945;-82
2022/08/31 04:53:31;;;;;;;9.95;4.58;;;;;;;15.02;94.76;99307.32;2188038;81;21027;-84
2022/08/31 04:56:31;;;;;;;13.08;4.25;;;;;;;14.95;93.44;99309.50;2187887;81;21887;-84
2022/08/31 04:59:31;;;;;;;8.85;3.47;;;;;;;14.82;93.91;99310.35;2188065;81;20971;-82
2022/08/31 05:02:32;;;;;;;8.63;4.15;;;;;;;14.89;94.67;99310.80;2187257;81;21142;-83
2022/08/31 05:05:32;;;;;;;8.83;3.98;;;;;;;14.94;94.31;99311.69;2187425;81;21026;-83
2022/08/31 05:08:33;;;;;;;12.73;4.42;;;;;;;14.92;94.16;99307.74;2187067;81;20928;-83
2022/08/31 05:11:33;;;;;;;6.10;4.10;;;;;;;14.94;95.29;99313.88;2186936;81;20971;-83
2022/08/31 05:14:34;;;;;;;6.33;3.70;;;;;;;15.20;94.09;99315.23;2186774;81;21075;-83
2022/08/31 05:17:34;;;;;;;9.08;5.92;;;;;;;15.17;94.42;99316.53;2187345;81;20956;-83
2022/08/31 05:20:34;;;;;;;5.50;3.80;;;;;;;15.39;94.54;99312.16;2187308;81;20999;-84
2022/08/31 05:23:35;;;;;;;5.05;3.60;;;;;;;15.67;93.49;99319.66;2187868;81;20984;-83
2022/08/31 05:26:35;;;;;;;8.95;3.50;;;;;;;15.53;92.52;99325.31;2187763;81;21828;-84
2022/08/31 05:29:35;;;;;;;6.10;3.60;;;;;;;15.41;92.36;99327.95;2187473;81;20964;-83
2022/08/31 05:32:36;;;;;;;7.20;3.50;;;;;;;15.30;92.65;99330.13;2187444;81;21091;-84
2022/08/31 05:35:36;;;;;;;8.30;4.25;;;;;;;15.22;93.00;99334.52;2188489;81;21030;-83
2022/08/31 05:38:37;;;;;;;5.10;3.30;;;;;;;15.20;93.63;99338.02;2188402;81;20975;-84
2022/08/31 05:41:37;;;;;;;18.10;4.87;;;;;;;15.23;93.91;99332.32;2187408;81;20944;-78
2022/08/31 05:44:38;;;;;;;31.57;5.55;;;;;;;15.25;93.77;99336.27;2186264;81;21015;-83
2022/08/31 05:47:38;;;;;;;35.78;4.80;;;;;;;15.37;95.20;99332.77;2188780;81;21415;-82
2022/08/31 05:50:38;;;;;;;9.75;3.55;;;;;;;15.55;94.03;99334.95;2188918;81;21027;-83
2022/08/31 05:53:39;;;;;;;12.28;3.15;;;;;;;15.93;94.77;99329.72;2189264;81;20976;-83
2022/08/31 05:56:39;;;;;;;6.70;3.10;;;;;;;16.28;92.90;99338.40;2188456;81;20987;-78
2022/08/31 05:59:39;;;;;;;5.30;3.33;;;;;;;16.42;90.53;99334.84;2187115;81;21011;-83
2022/08/31 06:02:41;;;;;;;6.97;3.20;;;;;;;16.25;90.30;99345.43;2189486;81;21085;-84
2022/08/31 06:05:40;;;;;;;43.42;5.92;;;;;;;16.09;89.91;99346.36;2189536;81;21003;-80
2022/08/31 06:08:41;;;;;;;20.68;3.95;;;;;;;15.91;90.53;99351.22;2189506;81;20968;-83
2022/08/31 06:11:41;;;;;;;7.50;3.08;;;;;;;15.90;91.50;99349.47;2189607;81;21016;-80
2022/08/31 06:14:41;;;;;;;6.37;3.27;;;;;;;16.04;90.73;99357.78;2189071;81;20999;-84
2022/08/31 06:17:43;;;;;;;15.18;3.33;;;;;;;16.03;90.47;99364.80;2189311;81;21352;-83
2022/08/31 06:20:42;;;;;;;5.80;3.45;;;;;;;16.06;90.27;99356.02;2189536;81;20979;-82
2022/08/31 06:23:43;;;;;;;5.45;2.95;;;;;;;16.11;89.99;99359.52;2189970;81;20952;-82
2022/08/31 06:26:54;;;;;;;10.80;3.35;;;;;;;16.20;89.85;99359.50;2189938;81;21034;-83
2022/08/31 06:29:43;;;;;;;12.80;3.40;;;;;;;16.29;89.44;99360.78;2189993;81;20980;-83
2022/08/31 06:32:44;;;;;;;42.10;4.60;;;;;;;16.36;88.73;99363.84;2189365;81;21051;-83
2022/08/31 06:35:44;;;;;;;12.28;2.92;;;;;;;16.36;88.87;99363.84;2190459;81;21012;-84
2022/08/31 06:38:45;;;;;;;47.85;6.80;;;;;;;16.67;88.86;99365.11;2190816;81;20987;-83
2022/08/31 06:41:47;;;;;;;5.97;2.87;;;;;;;16.80;88.18;99369.44;2189704;81;20921;-84
2022/08/31 06:44:46;;;;;;;5.72;2.72;;;;;;;16.83;87.37;99370.74;2188930;81;20963;-82
2022/08/31 06:47:46;;;;;;;10.50;3.50;;;;;;;16.81;86.04;99367.23;2187479;81;20936;-80
2022/08/31 06:50:46;;;;;;;9.13;2.80;;;;;;;16.80;86.61;99374.70;2187343;81;21340;-79
2022/08/31 06:53:47;;;;;;;6.33;3.05;;;;;;;16.84;86.25;99374.69;2186780;81;21047;-84
2022/08/31 06:56:48;;;;;;;4.25;2.30;;;;;;;16.92;85.92;99376.41;2186939;81;20959;-81
2022/08/31 06:59:48;;;;;;;6.10;2.52;;;;;;;17.15;85.41;99372.75;2187166;81;21668;-81
2022/08/31 07:02:48;;;;;;;6.60;2.65;;;;;;;17.46;84.71;99377.85;2174588;81;21073;-80
2022/08/31 07:05:49;;;;;;;4.83;1.98;;;;;;;18.19;84.55;99369.30;2171569;81;20960;-80
2022/08/31 07:08:50;;;;;;;3.05;1.70;;;;;;;18.61;79.50;99368.00;2172234;81;21020;-83
2022/08/31 07:11:50;;;;;;;2.83;1.72;;;;;;;18.96;78.22;99366.22;2172227;82;20936;-84
2022/08/31 07:14:50;;;;;;;6.12;1.70;;;;;;;19.58;75.16;99371.54;2172379;81;20981;-82
2022/08/31 07:17:50;;;;;;;4.97;1.75;;;;;;;19.49;71.60;99374.30;2172611;81;21008;-84
2022/08/31 07:20:50;;;;;;;3.08;1.70;;;;;;;19.68;71.34;99370.04;2171665;81;20984;-84
2022/08/31 07:23:51;;;;;;;3.08;1.62;;;;;;;19.56;71.12;99371.56;2171475;82;20964;-85
2022/08/31 07:26:52;;;;;;;12.18;2.58;;;;;;;19.62;69.91;99376.77;2171954;81;21390;-84
2022/08/31 07:29:52;;;;;;;12.37;2.62;;;;;;;19.73;67.98;99376.58;2171695;81;21016;-84
2022/08/31 07:32:52;;;;;;;9.23;2.08;;;;;;;19.89;67.60;99382.50;2171906;81;21047;-84
2022/08/31 07:35:52;;;;;;;12.53;2.08;;;;;;;19.65;68.20;99381.13;2173163;81;20991;-83
2022/08/31 07:42:12;;;;;;;7.67;1.70;;;;;;;19.19;65.85;99384.90;2172908;82;20997;-84
2022/08/31 07:45:12;;;;;;;3.02;1.42;;;;;;;19.31;65.44;99387.37;2172259;81;21275;-85
2022/08/31 07:48:14;;;;;;;5.75;1.90;;;;;;;19.47;63.35;99393.30;2172583;81;21375;-83
2022/08/31 07:51:16;;;;;;;1.60;1.50;;;;;;;19.46;65.00;99394.20;2172140;81;20989;-84
2022/08/31 07:54:15;;;;;;;1.72;1.20;;;;;;;19.70;62.79;99396.05;2171933;82;21036;-83
2022/08/31 07:57:14;;;;;;;4.80;1.40;;;;;;;20.02;61.50;99387.59;2170880;81;20984;-81
2022/08/31 08:00:16;;;;;;;1.82;1.40;;;;;;;20.13;60.18;99397.99;2171611;81;21439;-86
2022/08/31 08:03:15;;;;;;;5.35;1.40;;;;;;;20.31;57.02;99392.80;2171330;81;21001;-83
2022/08/31 08:06:15;;;;;;;2.27;1.40;;;;;;;20.24;56.82;99392.05;2172039;82;21044;-83
2022/08/31 08:09:16;;;;;;;5.37;1.40;;;;;;;20.39;58.29;99392.24;2171934;81;21035;-83
2022/08/31 08:12:17;;;;;;;5.53;1.82;;;;;;;20.59;56.87;99388.75;2172045;81;21399;-83
2022/08/31 08:15:16;;;;;;;2.45;1.52;;;;;;;20.55;56.47;99388.39;2172798;81;21040;-82
2022/08/31 08:18:20;;;;;;;2.25;1.50;;;;;;;20.26;57.55;99395.55;2173162;82;20945;-84
2022/08/31 08:21:20;;;;;;;2.35;1.40;;;;;;;20.53;56.12;99392.85;2172953;81;20992;-84
2022/08/31 08:24:21;;;;;;;87.97;6.92;;;;;;;20.55;57.36;99395.47;2170743;81;20944;-81
2022/08/31 08:27:21;;;;;;;15.40;2.47;;;;;;;20.95;53.66;99395.56;2171946;81;21680;-84
2022/08/31 08:30:21;;;;;;;6.30;2.10;;;;;;;21.29;54.70;99390.41;2171959;81;21000;-83
2022/08/31 08:33:24;;;;;;;3.00;1.40;;;;;;;21.74;50.98;99393.79;2172433;81;21218;-83
2022/08/31 08:36:22;;;;;;;3.45;1.85;;;;;;;22.03;51.07;99390.88;2173252;81;20968;-82
2022/08/31 08:39:23;;;;;;;2.08;1.45;;;;;;;22.43;50.73;99392.89;2173131;81;21012;-84
2022/08/31 08:42:24;;;;;;;1.90;1.40;;;;;;;22.46;47.78;99397.26;2174313;81;20964;-84
2022/08/31 08:45:23;;;;;;;2.12;1.42;;;;;;;22.54;50.13;99393.50;2173772;81;20968;-84
2022/08/31 08:48:25;;;;;;;2.37;1.30;;;;;;;22.69;49.16;99392.20;2171742;81;21348;-83
2022/08/31 08:51:25;;;;;;;3.45;1.72;;;;;;;22.06;48.50;99390.80;2172114;81;20954;-84
2022/08/31 08:54:25;;;;;;;3.22;1.40;;;;;;;21.89;49.11;99392.08;2171718;81;21023;-82
2022/08/31 08:57:25;;;;;;;2.70;1.47;;;;;;;21.58;48.82;99391.92;2171880;81;21355;-85
2022/08/31 09:00:27;;;;;;;4.35;1.30;;;;;;;21.21;49.73;99388.34;2171553;81;20976;-84
2022/08/31 09:03:29;;;;;;;129.45;8.73;;;;;;;21.01;50.68;99388.79;2185783;81;21012;-79
2022/08/31 09:06:27;;;;;;;6.85;1.50;;;;;;;20.65;50.27;99394.38;2187639;81;20944;-84
2022/08/31 09:09:27;;;;;;;3.35;1.30;;;;;;;20.39;51.71;99400.61;2188352;81;21477;-84
2022/08/31 09:12:29;;;;;;;2.55;1.20;;;;;;;20.35;50.77;99395.38;2189310;81;20972;-84
2022/08/31 09:15:34;;;;;;;2.60;1.25;;;;;;;20.71;51.84;99390.73;2189148;81;20956;-85
2022/08/31 09:18:32;;;;;;;6.20;1.37;;;;;;;21.40;51.74;99385.72;2188710;81;20986;-84
2022/08/31 09:21:33;;;;;;;2.72;1.40;;;;;;;21.68;51.06;99391.28;2189312;81;21023;-84
2022/08/31 09:24:32;;;;;;;1.92;1.15;;;;;;;21.83;48.87;99382.93;2189545;81;20982;-85
2022/08/31 09:27:32;;;;;;;2.02;1.85;;;;;;;21.76;49.46;99387.11;2189164;81;20991;-84
2022/08/31 09:30:33;;;;;;;2.15;1.50;;;;;;;21.51;49.64;99381.03;2188431;81;20987;-84
2022/08/31 09:33:33;;;;;;;2.50;1.40;;;;;;;21.70;50.72;99375.30;2188483;81;21035;-85
2022/08/31 09:36:37;;;;;;;3.62;1.30;;;;;;;21.66;50.33;99373.59;2187731;81;20999;-84
2022/08/31 09:39:35;;;;;;;3.75;1.92;;;;;;;21.39;50.38;99376.47;2187940;81;21022;-84
2022/08/31 09:42:34;;;;;;;2.55;1.35;;;;;;;21.82;50.52;99377.66;2188050;81;21036;-81
2022/08/31 09:45:35;;;;;;;2.08;1.12;;;;;;;21.95;49.11;99377.76;2187757;81;20951;-84
2022/08/31 09:48:35;;;;;;;1.60;1.20;;;;;;;21.92;45.53;99373.84;2187611;81;21006;-84
2022/08/31 09:51:36;;;;;;;4.92;1.35;;;;;;;21.59;47.97;99380.39;2187813;81;21699;-83
2022/08/31 09:57:55;;;;;;;3.08;1.47;;;;;;;22.29;48.47;99379.56;2187477;81;20968;-84
2022/08/31 10:04:07;;;;;;;2.27;1.80;;;;;;;23.32;46.30;99364.59;2090112;85;21043;-86
2022/08/31 10:07:08;;;;;;;2.90;1.30;;;;;;;23.86;45.12;99361.56;2090961;85;21015;-85
2022/08/31 10:10:09;;;;;;;2.37;1.32;;;;;;;23.75;43.28;99357.92;2090929;85;20991;-84
2022/08/31 10:13:08;;;;;;;2.45;1.60;;;;;;;23.59;43.12;99354.90;2091623;85;20983;-85
2022/08/31 10:16:13;;;;;;;1.98;1.22;;;;;;;23.38;43.18;99353.73;2090508;85;21295;-85
2022/08/31 10:19:09;;;;;;;7.05;1.47;;;;;;;22.95;43.20;99358.66;2091971;85;21027;-84
2022/08/31 10:22:10;;;;;;;1.35;1.20;;;;;;;22.40;43.94;99359.73;2093184;85;20959;-83
2022/08/31 10:25:11;;;;;;;1.75;1.30;;;;;;;22.05;43.97;99345.20;2092112;85;21028;-85
2022/08/31 10:28:13;;;;;;;2.62;1.72;;;;;;;21.75;45.91;99356.13;2091705;85;21018;-85
2022/08/31 10:31:21;;;;;;;1.52;1.32;;;;;;;21.62;46.25;99354.20;2091504;85;21007;-83
2022/08/31 10:37:35;;;;;;;2.35;1.50;;;;;;;21.57;48.89;99359.63;2091669;84;21003;-84
2022/08/31 10:40:33;;;;;;;5.22;1.40;;;;;;;21.36;48.56;99358.82;2091618;85;21018;-85
2022/08/31 10:43:33;;;;;;;2.17;1.20;;;;;;;21.18;48.78;99348.14;2091772;85;20999;-84
2022/08/31 10:46:34;;;;;;;2.47;1.50;;;;;;;21.30;49.90;99353.20;2091337;85;21102;-83
2022/08/31 10:49:35;;;;;;;3.22;1.35;;;;;;;21.29;49.66;99351.91;2092280;85;20964;-85
2022/08/31 10:52:34;;;;;;;10.50;2.35;;;;;;;21.16;49.99;99356.59;2091445;85;21042;-84
2022/08/31 10:55:36;;;;;;;3.15;1.67;;;;;;;21.13;50.55;99354.47;2091087;85;21412;-84
2022/08/31 10:58:35;;;;;;;1.80;1.50;;;;;;;21.19;50.50;99351.22;2091914;85;21034;-85
2022/08/31 11:01:36;;;;;;;2.75;1.40;;;;;;;21.09;49.92;99342.17;2092202;85;21027;-85
2022/08/31 11:04:36;;;;;;;2.15;1.57;;;;;;;20.99;50.22;99339.73;2096816;85;21372;-83
2022/08/31 11:07:37;;;;;;;2.45;1.57;;;;;;;21.14;49.27;99340.28;2159629;81;20983;-83
2022/08/31 11:10:37;;;;;;;37.83;4.37;;;;;;;21.37;48.71;99335.80;2184166;81;20995;-82
2022/08/31 11:13:37;;;;;;;32.80;4.08;;;;;;;21.76;48.45;99333.51;2184055;81;21067;-85
2022/08/31 11:16:38;;;;;;;18.00;2.10;;;;;;;22.14;46.98;99316.58;2185083;81;21361;-84
2022/08/31 11:19:38;;;;;;;3.70;1.80;;;;;;;22.65;46.07;99317.37;2184764;81;20963;-83
2022/08/31 11:22:39;;;;;;;51.70;4.15;;;;;;;23.44;46.41;99308.28;2185090;81;20964;-81
2022/08/31 11:25:46;;;;;;;2.83;1.32;;;;;;;23.60;45.05;99305.14;2183414;81;20987;-82
2022/08/31 11:28:39;;;;;;;2.00;1.30;;;;;;;23.14;44.33;99317.23;2183235;81;21384;-80
2022/08/31 11:31:40;;;;;;;3.25;1.40;;;;;;;22.54;42.69;99319.02;2183430;81;20992;-84
2022/08/31 11:34:45;;;;;;;24.12;3.52;;;;;;;22.40;45.53;99311.86;2183532;81;21019;-83
2022/08/31 11:37:41;;;;;;;2.05;0.90;;;;;;;22.95;44.61;99305.41;2184180;81;20976;-83
2022/08/31 11:40:42;;;;;;;2.80;1.15;;;;;;;23.32;42.79;99301.98;2184305;81;21019;-84
2022/08/31 11:43:41;;;;;;;1.67;1.30;;;;;;;23.43;41.46;99302.55;2183946;81;20944;-85
2022/08/31 11:46:42;;;;;;;2.87;1.30;;;;;;;23.62;39.87;99304.16;2184205;81;20940;-86
2022/08/31 11:49:45;;;;;;;1.85;1.17;;;;;;;23.30;40.38;99300.30;2184240;81;20979;-84
2022/08/31 11:52:52;;;;;;;2.15;1.07;;;;;;;23.17;41.03;99296.70;2184005;81;20948;-84
2022/08/31 11:55:46;;;;;;;22.58;2.70;;;;;;;23.08;40.21;99305.44;2184537;81;21270;-84
2022/08/31 11:58:46;;;;;;;6.75;1.80;;;;;;;22.71;40.35;99305.20;2184279;81;21415;-85
2022/08/31 12:01:47;;;;;;;7.25;1.62;;;;;;;22.51;42.32;99300.45;2183337;81;21174;-84
2022/08/31 12:04:48;;;;;;;12.55;1.82;;;;;;;22.33;43.84;99304.09;2187428;81;21015;-83
2022/08/31 12:07:47;;;;;;;1.40;1.10;;;;;;;22.34;44.26;99307.17;2188452;81;21243;-82
2022/08/31 12:10:48;;;;;;;4.35;1.50;;;;;;;22.75;43.12;99302.00;2188262;81;21243;-84
2022/08/31 12:13:50;;;;;;;1.72;1.30;;;;;;;22.71;42.62;99304.34;2187498;81;20999;-83
2022/08/31 12:16:49;;;;;;;2.87;2.55;;;;;;;23.01;42.65;99297.23;2188038;81;20968;-84
2022/08/31 12:20:04;;;;;;;3.52;3.15;;;;;;;23.27;41.78;99289.28;2188055;81;21453;-85
2022/08/31 12:26:18;;;;;;;1.55;1.40;;;;;;;22.90;41.16;99284.26;2188305;81;21348;-85
2022/08/31 12:29:19;;;;;;;2.15;1.60;;;;;;;22.31;42.39;99291.30;2187800;81;20960;-84
2022/08/31 12:32:18;;;;;;;90.40;7.08;;;;;;;21.89;43.26;99294.20;2187609;81;20940;-81
2022/08/31 12:35:19;;;;;;;4.28;1.37;;;;;;;21.57;43.34;99290.57;2187215;81;21094;-83
2022/08/31 12:38:19;;;;;;;8.08;1.90;;;;;;;21.47;43.76;99294.38;2187143;81;20944;-86
2022/08/31 12:41:20;;;;;;;3.02;1.45;;;;;;;21.47;43.49;99289.52;2187420;81;20984;-85
2022/08/31 12:44:20;;;;;;;2.50;1.35;;;;;;;21.57;43.17;99290.57;2188248;81;21003;-84
2022/08/31 12:47:20;;;;;;;47.73;4.78;;;;;;;21.88;44.43;99284.48;2187657;81;21348;-81
2022/08/31 12:50:21;;;;;;;9.50;2.05;;;;;;;22.22;44.58;99286.66;2186176;81;20996;-84
2022/08/31 12:53:21;;;;;;;1.75;1.20;;;;;;;22.51;43.47;99278.30;2187621;81;21048;-84
2022/08/31 12:56:22;;;;;;;17.07;2.25;;;;;;;22.31;42.64;99281.53;2188015;81;20971;-84
2022/08/31 12:59:22;;;;;;;3.55;1.22;;;;;;;22.15;43.72;99271.80;2187739;81;20967;-85
2022/08/31 13:02:22;;;;;;;8.65;2.35;;;;;;;22.13;43.58;99280.27;2183537;81;21075;-84
2022/08/31 13:05:23;;;;;;;6.67;1.40;;;;;;;22.11;41.30;99275.91;2170792;81;21028;-84
2022/08/31 13:08:23;;;;;;;13.05;2.15;;;;;;;22.04;41.80;99280.98;2170892;81;20999;-84
2022/08/31 13:11:24;;;;;;;2.37;1.20;;;;;;;22.03;42.85;99277.45;2170609;81;20973;-84
2022/08/31 13:14:25;;;;;;;1.25;1.10;;;;;;;22.00;40.66;99276.17;2169818;81;21047;-84
2022/08/31 13:17:25;;;;;;;12.13;1.52;;;;;;;22.16;42.58;99277.52;2169811;81;20991;-84
2022/08/31 13:20:25;;;;;;;5.47;1.60;;;;;;;22.23;39.94;99283.08;2170066;81;21020;-86
2022/08/31 13:23:25;;;;;;;25.15;3.33;;;;;;;22.12;38.58;99281.64;2170104;81;20967;-84
2022/08/31 13:26:34;;;;;;;4.53;1.92;;;;;;;22.09;38.99;99275.08;2170329;81;21048;-84
2022/08/31 13:29:28;;;;;;;57.58;6.33;;;;;;;22.27;40.18;99273.69;2163127;82;20988;-82
2022/08/31 13:32:31;;;;;;;14.98;2.92;;;;;;;22.38;40.81;99272.46;2170497;82;21035;-84
2022/08/31 13:35:32;;;;;;;2.77;1.20;;;;;;;22.48;41.18;99268.61;2169968;81;20952;-84
2022/08/31 13:38:50;;;;;;;24.47;3.25;;;;;;;22.63;40.40;99267.77;2169687;81;20987;-83
2022/08/31 13:41:30;;;;;;;3.17;1.02;;;;;;;22.65;41.46;99270.80;2170105;82;20992;-83
2022/08/31 13:44:30;;;;;;;1.32;1.02;;;;;;;22.63;39.76;99259.33;2170761;81;21341;-83
2022/08/31 13:47:30;;;;;;;2.08;1.00;;;;;;;22.53;38.91;99268.48;2170297;81;21019;-83
2022/08/31 13:50:31;;;;;;;2.27;1.45;;;;;;;22.44;40.13;99270.95;2170518;81;20964;-83
2022/08/31 13:53:35;;;;;;;2.80;1.20;;;;;;;22.40;41.21;99273.29;2170547;81;21691;-84
2022/08/31 13:59:51;;;;;;;2.05;1.27;;;;;;;22.38;42.32;99262.28;2170902;82;20965;-83
2022/08/31 14:02:52;;;;;;;8.98;1.50;;;;;;;22.45;43.39;99275.81;2170286;81;21770;-83
2022/08/31 14:05:54;;;;;;;2.25;1.42;;;;;;;22.39;44.06;99270.67;2170226;82;21000;-83
2022/08/31 14:08:52;;;;;;;4.17;1.47;;;;;;;22.42;44.63;99271.45;2171646;81;20988;-83
2022/08/31 14:11:52;;;;;;;1.52;1.22;;;;;;;22.13;45.00;99269.63;2172144;81;20965;-84
2022/08/31 14:14:54;;;;;;;11.25;2.02;;;;;;;22.12;45.37;99273.66;2172038;81;21463;-83
2022/08/31 14:17:57;;;;;;;2.98;1.60;;;;;;;22.04;45.65;99278.33;2173013;81;21063;-82
2022/08/31 14:20:54;;;;;;;4.45;1.62;;;;;;;21.81;45.56;99278.92;2171443;82;21023;-83
2022/08/31 14:23:55;;;;;;;7.12;1.87;;;;;;;21.74;44.08;99274.68;2171855;81;20984;-83
2022/08/31 14:26:54;;;;;;;1.52;1.22;;;;;;;21.76;44.42;99278.17;2171304;82;20968;-83
2022/08/31 14:29:57;;;;;;;2.17;1.55;;;;;;;21.82;45.06;99278.00;2170614;81;21040;-83